createdAt,value
2023-03-03T00:01:09.272Z,2.95
2023-03-03T00:03:36.692Z,2.93
2023-03-03T00:06:09.434Z,2.91
2023-03-03T00:08:37.183Z,2.91
2023-03-03T00:11:06.953Z,2.91
2023-03-03T00:13:48.113Z,2.87
2023-03-03T00:16:28.022Z,2.88
2023-03-03T00:18:56.346Z,2.86
2023-03-03T00:21:29.550Z,2.82
2023-03-03T00:24:14.668Z,2.78
2023-03-03T00:26:50.342Z,2.82
2023-03-03T00:29:29.615Z,2.81
2023-03-03T00:32:31.793Z,2.76
2023-03-03T00:35:24.451Z,2.68
2023-03-03T00:38:00.026Z,2.65
2023-03-03T00:40:39.850Z,2.61
2023-03-03T00:43:34.502Z,2.60
2023-03-03T00:46:02.118Z,2.58
2023-03-03T00:48:38.200Z,2.54
2023-03-03T00:51:35.801Z,2.49
2023-03-03T00:54:03.684Z,2.47
2023-03-03T00:56:31.186Z,2.48
2023-03-03T00:58:58.744Z,2.49
2023-03-03T01:01:26.149Z,2.51
2023-03-03T01:03:53.711Z,2.50
2023-03-03T01:06:21.227Z,2.54
2023-03-03T01:08:48.803Z,2.54
2023-03-03T01:11:23.235Z,2.45
2023-03-03T01:13:53.153Z,2.43
2023-03-03T01:16:21.138Z,2.38
2023-03-03T01:18:48.904Z,2.30
2023-03-03T01:21:16.214Z,2.30
2023-03-03T01:23:43.792Z,2.25
2023-03-03T01:26:11.139Z,2.22
2023-03-03T01:28:38.734Z,2.20
2023-03-03T01:31:06.773Z,2.20
2023-03-03T01:33:36.571Z,2.18
2023-03-03T01:36:05.045Z,2.17
2023-03-03T01:38:35.921Z,2.15
2023-03-03T01:41:04.172Z,2.16
2023-03-03T01:43:33.873Z,2.17
2023-03-03T01:46:01.163Z,2.13
2023-03-03T01:48:44.816Z,2.07
2023-03-03T01:51:27.365Z,2.04
2023-03-03T01:54:00.920Z,1.97
2023-03-03T01:56:29.773Z,1.89
2023-03-03T01:59:07.395Z,1.91
2023-03-03T02:01:35.872Z,1.93
2023-03-03T02:04:04.276Z,1.93
2023-03-03T02:06:40.403Z,1.90
2023-03-03T02:10:05.732Z,1.89
2023-03-03T02:12:40.959Z,1.91
2023-03-03T02:15:32.296Z,1.90
2023-03-03T02:18:07.414Z,1.89
2023-03-03T02:20:41.102Z,1.90
2023-03-03T02:23:34.560Z,1.86
2023-03-03T02:26:15.492Z,1.86
2023-03-03T02:28:43.867Z,1.84
2023-03-03T02:31:17.654Z,1.82
2023-03-03T02:33:49.128Z,1.83
2023-03-03T02:36:34.561Z,1.81
2023-03-03T02:39:23.944Z,1.76
2023-03-03T02:42:12.870Z,1.75
2023-03-03T02:44:40.279Z,1.77
2023-03-03T02:47:08.057Z,1.78
2023-03-03T02:49:36.801Z,1.76
2023-03-03T02:52:09.946Z,1.70
2023-03-03T02:54:38.006Z,1.70
2023-03-03T02:57:06.361Z,1.67
2023-03-03T02:59:33.637Z,1.66
2023-03-03T03:02:01.544Z,1.64
2023-03-03T03:04:28.902Z,1.65
2023-03-03T03:06:57.106Z,1.63
2023-03-03T03:09:25.950Z,1.64
2023-03-03T03:11:53.666Z,1.63
2023-03-03T03:14:21.021Z,1.64
2023-03-03T03:16:48.721Z,1.61
2023-03-03T03:19:16.241Z,1.62
2023-03-03T03:21:43.900Z,1.60
2023-03-03T03:24:11.290Z,1.58
2023-03-03T03:26:38.915Z,1.58
2023-03-03T03:29:07.738Z,1.58
2023-03-03T03:31:35.368Z,1.58
2023-03-03T03:34:02.715Z,1.57
2023-03-03T03:36:30.288Z,1.56
2023-03-03T03:38:57.567Z,1.56
2023-03-03T03:41:25.152Z,1.55
2023-03-03T03:43:52.445Z,1.50
2023-03-03T03:46:20.048Z,1.52
2023-03-03T03:48:47.394Z,1.50
2023-03-03T03:51:15.128Z,1.50
2023-03-03T03:53:42.397Z,1.49
2023-03-03T03:56:09.987Z,1.46
2023-03-03T03:58:37.287Z,1.45
2023-03-03T04:01:08.144Z,1.45
2023-03-03T04:03:36.145Z,1.39
2023-03-03T04:06:03.883Z,1.37
2023-03-03T04:08:31.156Z,1.37
2023-03-03T04:10:58.880Z,1.35
2023-03-03T04:13:29.017Z,1.34
2023-03-03T04:15:56.599Z,1.32
2023-03-03T04:18:23.929Z,1.32
2023-03-03T04:20:52.848Z,1.30
2023-03-03T04:23:20.631Z,1.29
2023-03-03T04:25:49.689Z,1.25
2023-03-03T04:28:17.778Z,1.29
2023-03-03T04:30:45.895Z,1.28
2023-03-03T04:33:13.534Z,1.29
2023-03-03T04:35:41.195Z,1.26
2023-03-03T04:38:08.612Z,1.24
2023-03-03T04:40:36.242Z,1.25
2023-03-03T04:43:04.370Z,1.22
2023-03-03T04:45:32.037Z,1.18
2023-03-03T04:47:59.475Z,1.16
2023-03-03T04:50:27.501Z,1.14
2023-03-03T04:52:55.275Z,1.12
2023-03-03T04:55:22.861Z,1.10
2023-03-03T04:57:50.119Z,1.14
2023-03-03T05:00:18.647Z,1.08
2023-03-03T05:02:49.078Z,1.06
2023-03-03T05:05:16.913Z,1.08
2023-03-03T05:07:44.163Z,1.04
2023-03-03T05:10:12.104Z,1.05
2023-03-03T05:12:39.663Z,1.05
2023-03-03T05:15:08.164Z,1.06
2023-03-03T05:17:35.671Z,1.05
2023-03-03T05:20:05.754Z,0.99
2023-03-03T05:22:33.028Z,1.02
2023-03-03T05:25:00.644Z,1.00
2023-03-03T05:27:27.841Z,0.97
2023-03-03T05:29:55.619Z,0.96
2023-03-03T05:32:23.104Z,0.94
2023-03-03T05:34:52.605Z,0.93
2023-03-03T05:37:19.929Z,0.92
2023-03-03T05:39:47.716Z,0.98
2023-03-03T05:42:15.188Z,1.05
2023-03-03T05:44:43.068Z,1.09
2023-03-03T05:47:10.936Z,1.13
2023-03-03T05:49:38.571Z,1.22
2023-03-03T05:52:05.961Z,1.33
2023-03-03T05:54:33.488Z,1.36
2023-03-03T05:57:00.852Z,1.46
2023-03-03T05:59:28.401Z,1.51
2023-03-03T06:01:55.752Z,1.59
2023-03-03T06:04:23.380Z,1.70
2023-03-03T06:06:51.555Z,1.83
2023-03-03T06:09:19.358Z,1.89
2023-03-03T06:11:46.633Z,2.01
2023-03-03T06:14:14.249Z,2.09
2023-03-03T06:16:41.645Z,2.17
2023-03-03T06:19:09.239Z,2.24
2023-03-03T06:21:36.459Z,2.37
2023-03-03T06:24:04.228Z,2.44
2023-03-03T06:26:33.049Z,2.53
2023-03-03T06:29:01.611Z,2.58
2023-03-03T06:31:28.965Z,2.59
2023-03-03T06:33:56.610Z,2.58
2023-03-03T06:36:25.506Z,2.55
2023-03-03T06:38:53.130Z,2.38
2023-03-03T06:41:20.530Z,2.50
2023-03-03T06:43:48.075Z,2.62
2023-03-03T06:46:15.467Z,2.73
2023-03-03T06:48:43.188Z,2.79
2023-03-03T06:51:30.891Z,2.73
2023-03-03T06:54:06.717Z,2.72
2023-03-03T06:56:37.620Z,2.60
2023-03-03T06:59:18.617Z,2.40
2023-03-03T07:01:50.657Z,2.19
2023-03-03T07:04:33.820Z,2.01
2023-03-03T07:07:15.254Z,1.96
2023-03-03T07:09:50.563Z,1.99
2023-03-03T07:12:30.656Z,2.06
2023-03-03T07:15:20.447Z,2.10
2023-03-03T07:17:53.179Z,1.88
2023-03-03T07:20:35.381Z,2.09
2023-03-03T07:23:31.578Z,1.84
2023-03-03T07:25:59.179Z,2.01
2023-03-03T07:28:29.536Z,1.95
2023-03-03T07:30:58.409Z,2.02
2023-03-03T07:33:28.821Z,1.91
2023-03-03T07:35:59.819Z,1.83
2023-03-03T07:38:40.384Z,1.83
2023-03-03T07:41:21.054Z,1.83
2023-03-03T07:43:55.839Z,2.02
2023-03-03T07:46:43.725Z,2.02
2023-03-03T07:49:40.137Z,1.88
2023-03-03T07:52:33.972Z,2.07
2023-03-03T07:55:23.649Z,2.17
2023-03-03T07:57:54.896Z,2.30
2023-03-03T08:00:28.627Z,2.30
2023-03-03T08:03:04.983Z,2.35
2023-03-03T08:05:41.899Z,2.32
2023-03-03T08:08:36.975Z,2.01
2023-03-03T08:11:06.182Z,1.89
2023-03-03T08:13:38.574Z,1.98
2023-03-03T08:16:11.447Z,2.05
2023-03-03T08:18:50.197Z,2.13
2023-03-03T08:21:24.318Z,2.11
2023-03-03T08:23:53.787Z,2.19
2023-03-03T08:26:23.701Z,2.13
2023-03-03T08:28:52.745Z,2.12
2023-03-03T08:31:38.155Z,2.13
2023-03-03T08:34:08.123Z,2.25
2023-03-03T08:36:35.434Z,2.41
2023-03-03T08:39:05.201Z,2.49
2023-03-03T08:41:32.627Z,2.62
2023-03-03T08:44:00.257Z,2.76
2023-03-03T08:46:28.742Z,2.96
2023-03-03T08:48:56.705Z,3.10
2023-03-03T08:51:24.917Z,3.17
2023-03-03T08:53:52.714Z,3.17
2023-03-03T08:56:20.046Z,3.09
2023-03-03T08:59:01.841Z,3.13
2023-03-03T09:01:31.704Z,3.10
2023-03-03T09:03:59.937Z,3.09
2023-03-03T09:06:27.374Z,2.87
2023-03-03T09:08:55.570Z,3.06
2023-03-03T09:11:27.751Z,3.23
2023-03-03T09:14:21.967Z,3.06
2023-03-03T09:16:53.497Z,3.13
2023-03-03T09:19:30.958Z,3.23
2023-03-03T09:22:19.069Z,3.06
2023-03-03T09:24:49.884Z,3.00
2023-03-03T09:27:37.258Z,3.22
2023-03-03T09:30:40.680Z,3.24
2023-03-03T09:33:33.467Z,3.36
2023-03-03T09:36:29.118Z,3.41
2023-03-03T09:39:00.726Z,3.47
2023-03-03T09:42:18.965Z,3.54
2023-03-03T09:45:04.744Z,3.37
2023-03-03T09:48:17.639Z,3.41
2023-03-03T09:51:09.132Z,3.37
2023-03-03T09:53:49.389Z,3.41
2023-03-03T09:56:21.395Z,3.51
2023-03-03T09:59:25.605Z,3.45
2023-03-03T10:02:20.560Z,3.34
2023-03-03T10:05:28.356Z,3.26
2023-03-03T10:08:21.763Z,3.34
2023-03-03T10:11:02.137Z,3.31
2023-03-03T10:13:54.659Z,3.39
2023-03-03T10:17:24.439Z,3.41
2023-03-03T10:20:09.956Z,3.44
2023-03-03T10:22:43.476Z,3.49
2023-03-03T10:25:47.140Z,3.47
2023-03-03T10:28:54.636Z,3.46
2023-03-03T10:31:59.620Z,3.42
2023-03-03T10:34:50.931Z,3.38
2023-03-03T10:37:42.768Z,3.26
2023-03-03T10:40:33.126Z,3.17
2023-03-03T10:43:09.284Z,3.09
2023-03-03T10:46:35.211Z,3.11
2023-03-03T10:49:19.793Z,3.12
2023-03-03T10:52:28.316Z,3.12
2023-03-03T10:55:04.762Z,3.25
2023-03-03T10:57:56.848Z,3.23
2023-03-03T11:00:52.611Z,3.23
2023-03-03T11:03:35.247Z,3.27
2023-03-03T11:06:22.374Z,3.25
2023-03-03T11:09:04.069Z,3.32
2023-03-03T11:11:55.812Z,3.44
2023-03-03T11:14:52.812Z,3.55
2023-03-03T11:17:37.720Z,3.61
2023-03-03T11:20:20.982Z,3.60
2023-03-03T11:23:27.618Z,3.42
2023-03-03T11:26:27.199Z,3.53
2023-03-03T11:29:39.267Z,3.45
2023-03-03T11:32:53.386Z,3.34
2023-03-03T11:35:50.290Z,3.40
2023-03-03T11:39:02.873Z,3.38
2023-03-03T11:41:36.465Z,3.47
2023-03-03T11:44:44.765Z,3.50
2023-03-03T11:47:31.772Z,3.59
2023-03-03T11:50:33.464Z,3.60
2023-03-03T11:53:44.750Z,3.45
2023-03-03T11:56:29.106Z,3.28
2023-03-03T11:59:14.354Z,3.35
2023-03-03T12:02:00.702Z,3.49
2023-03-03T12:04:40.798Z,3.59
2023-03-03T12:07:49.566Z,3.61
2023-03-03T12:10:42.493Z,3.76
2023-03-03T12:13:49.938Z,3.89
2023-03-03T12:16:44.612Z,4.12
2023-03-03T12:19:42.957Z,4.06
2023-03-03T12:22:34.150Z,4.06
2023-03-03T12:25:49.772Z,4.12
2023-03-03T12:28:27.618Z,4.07
2023-03-03T12:31:13.591Z,4.23
2023-03-03T12:33:56.944Z,4.10
2023-03-03T12:37:06.404Z,4.11
2023-03-03T12:39:57.972Z,3.98
2023-03-03T12:42:51.548Z,4.19
2023-03-03T12:46:06.824Z,3.93
2023-03-03T12:48:47.749Z,4.16
2023-03-03T12:51:50.620Z,4.18
2023-03-03T12:54:58.857Z,4.10
2023-03-03T12:57:56.087Z,3.95
2023-03-03T13:00:56.873Z,3.85
2023-03-03T13:03:59.427Z,3.78
2023-03-03T13:06:45.812Z,3.78
2023-03-03T13:09:46.721Z,3.65
2023-03-03T13:12:38.910Z,3.73
2023-03-03T13:15:54.856Z,3.58
2023-03-03T13:18:56.102Z,3.93
2023-03-03T13:21:47.447Z,3.87
2023-03-03T13:24:35.660Z,4.10
2023-03-03T13:27:16.944Z,4.20
2023-03-03T13:30:08.055Z,4.22
2023-03-03T13:32:49.325Z,4.33
2023-03-03T13:35:44.916Z,4.34
2023-03-03T13:38:33.405Z,4.43
2023-03-03T13:41:38.189Z,4.08
2023-03-03T13:44:35.795Z,3.91
2023-03-03T13:47:31.514Z,3.89
2023-03-03T13:50:30.845Z,3.81
2023-03-03T13:53:27.523Z,4.03
2023-03-03T13:56:23.621Z,3.99
2023-03-03T13:59:01.909Z,3.97
2023-03-03T14:01:58.269Z,4.04
2023-03-03T14:04:48.385Z,3.95
2023-03-03T14:07:33.812Z,3.88
2023-03-03T14:10:18.436Z,3.88
2023-03-03T14:13:25.336Z,3.74
2023-03-03T14:16:52.461Z,3.75
2023-03-03T14:19:32.896Z,3.86
2023-03-03T14:22:24.199Z,3.85
2023-03-03T14:25:03.976Z,3.73
2023-03-03T14:27:40.762Z,3.89
2023-03-03T14:30:23.919Z,3.93
2023-03-03T14:33:09.542Z,3.80
2023-03-03T14:36:00.953Z,3.79
2023-03-03T14:38:34.706Z,3.79
2023-03-03T14:41:35.145Z,3.80
2023-03-03T14:44:27.657Z,3.66
2023-03-03T14:47:22.809Z,3.73
2023-03-03T14:49:51.858Z,3.75
2023-03-03T14:52:23.960Z,3.78
2023-03-03T14:55:00.483Z,3.83
2023-03-03T14:57:46.376Z,3.86
2023-03-03T15:00:15.030Z,3.90
2023-03-03T15:03:16.504Z,3.90
2023-03-03T15:05:58.079Z,3.95
2023-03-03T15:08:34.983Z,3.87
2023-03-03T15:11:17.842Z,3.76
2023-03-03T15:13:45.812Z,3.82
2023-03-03T15:16:23.948Z,3.69
2023-03-03T15:19:43.663Z,3.51
2023-03-03T15:22:35.518Z,3.45
2023-03-03T15:25:58.809Z,3.41
2023-03-03T15:28:59.477Z,3.25
2023-03-03T15:31:48.503Z,3.27
2023-03-03T15:34:39.653Z,3.38
2023-03-03T15:37:34.047Z,3.27
2023-03-03T15:40:30.459Z,3.03
2023-03-03T15:43:12.157Z,3.01
2023-03-03T15:46:06.549Z,3.00
2023-03-03T15:48:45.490Z,2.95
2023-03-03T15:51:31.380Z,2.94
2023-03-03T15:54:07.651Z,2.71
2023-03-03T15:56:58.674Z,2.55
2023-03-03T15:59:42.383Z,2.62
2023-03-03T16:02:38.834Z,2.61
2023-03-03T16:06:02.601Z,2.67
2023-03-03T16:08:56.160Z,2.65
2023-03-03T16:12:09.290Z,2.59
2023-03-03T16:14:52.547Z,2.66
2023-03-03T16:17:57.141Z,2.69
2023-03-03T16:20:43.047Z,2.61
2023-03-03T16:23:23.327Z,2.52
2023-03-03T16:26:17.336Z,2.52
2023-03-03T16:29:14.201Z,2.43
2023-03-03T16:32:32.143Z,2.50
2023-03-03T16:35:24.814Z,2.49
2023-03-03T16:38:10.477Z,2.47
2023-03-03T16:40:49.725Z,2.51
2023-03-03T16:43:17.238Z,2.52
2023-03-03T16:45:45.976Z,2.47
2023-03-03T16:48:25.917Z,2.54
2023-03-03T16:51:19.822Z,2.48
2023-03-03T16:54:11.331Z,2.54
2023-03-03T16:56:52.016Z,2.42
2023-03-03T16:59:43.977Z,2.48
2023-03-03T17:02:56.034Z,2.46
2023-03-03T17:05:52.044Z,2.40
2023-03-03T17:08:40.704Z,2.47
2023-03-03T17:11:43.596Z,2.46
2023-03-03T17:14:36.234Z,2.51
2023-03-03T17:17:25.722Z,2.46
2023-03-03T17:20:45.028Z,2.34
2023-03-03T17:23:27.675Z,2.22
2023-03-03T17:26:31.705Z,2.18
2023-03-03T17:29:33.054Z,2.15
2023-03-03T17:32:31.646Z,2.16
2023-03-03T17:35:23.986Z,2.20
2023-03-03T17:38:16.728Z,2.33
2023-03-03T17:41:04.330Z,2.20
2023-03-03T17:44:02.595Z,2.28
2023-03-03T17:47:01.597Z,2.30
2023-03-03T17:49:43.901Z,2.27
2023-03-03T17:52:34.100Z,2.44
2023-03-03T17:55:16.513Z,2.28
2023-03-03T17:58:17.422Z,2.20
2023-03-03T18:00:50.605Z,2.18
2023-03-03T18:03:59.559Z,2.18
2023-03-03T18:06:35.796Z,2.18
2023-03-03T18:09:52.810Z,2.02
2023-03-03T18:12:47.649Z,2.05
2023-03-03T18:15:27.046Z,2.17
2023-03-03T18:18:21.497Z,2.11
2023-03-03T18:21:05.012Z,2.10
2023-03-03T18:23:42.107Z,2.09
2023-03-03T18:26:34.973Z,1.91
2023-03-03T18:29:19.651Z,1.98
2023-03-03T18:31:57.855Z,1.97
2023-03-03T18:34:28.283Z,2.12
2023-03-03T18:37:10.098Z,2.08
2023-03-03T18:40:10.089Z,2.09
2023-03-03T18:42:43.330Z,2.17
2023-03-03T18:45:18.087Z,2.18
2023-03-03T18:48:11.847Z,2.03
2023-03-03T18:50:48.008Z,1.98
2023-03-03T18:53:23.938Z,1.99
2023-03-03T18:55:57.906Z,1.92
2023-03-03T18:58:43.263Z,1.95
2023-03-03T19:01:31.471Z,1.92
2023-03-03T19:04:22.624Z,1.90
2023-03-03T19:06:49.992Z,1.82
2023-03-03T19:09:52.692Z,1.84
2023-03-03T19:12:53.595Z,1.84
2023-03-03T19:15:30.297Z,1.87
2023-03-03T19:18:23.967Z,1.85
2023-03-03T19:21:05.357Z,1.84
2023-03-03T19:23:54.465Z,1.84
2023-03-03T19:26:40.254Z,1.91
2023-03-03T19:29:49.273Z,1.84
2023-03-03T19:32:47.176Z,1.83
2023-03-03T19:36:03.337Z,1.86
2023-03-03T19:39:02.786Z,1.95
2023-03-03T19:42:04.919Z,1.92
2023-03-03T19:45:39.686Z,1.95
2023-03-03T19:48:39.433Z,1.81
2023-03-03T19:51:45.015Z,1.95
2023-03-03T19:54:57.700Z,1.94
2023-03-03T19:58:28.773Z,1.90
2023-03-03T20:01:19.964Z,1.93
2023-03-03T20:04:41.278Z,1.95
2023-03-03T20:07:31.446Z,2.01
2023-03-03T20:10:23.708Z,1.91
2023-03-03T20:13:20.898Z,1.83
2023-03-03T20:16:00.607Z,1.89
2023-03-03T20:19:06.564Z,1.81
2023-03-03T20:21:35.330Z,1.82
2023-03-03T20:24:24.913Z,1.88
2023-03-03T20:27:09.976Z,1.87
2023-03-03T20:29:55.296Z,1.88
2023-03-03T20:32:49.398Z,2.05
2023-03-03T20:35:38.041Z,1.85
2023-03-03T20:38:57.039Z,1.86
2023-03-03T20:42:05.936Z,1.89
2023-03-03T20:45:21.988Z,1.69
2023-03-03T20:48:15.503Z,1.72
2023-03-03T20:51:00.955Z,1.72
2023-03-03T20:53:36.507Z,1.64
2023-03-03T20:56:36.268Z,1.78
2023-03-03T20:59:29.802Z,1.77
2023-03-03T21:02:09.166Z,1.71
2023-03-03T21:04:37.131Z,1.69
2023-03-03T21:07:05.952Z,1.70
2023-03-03T21:09:39.277Z,1.70
2023-03-03T21:12:27.212Z,1.64
2023-03-03T21:15:27.684Z,1.60
2023-03-03T21:17:57.685Z,1.64
2023-03-03T21:20:32.590Z,1.55
2023-03-03T21:23:02.308Z,1.48
2023-03-03T21:25:41.872Z,1.50
2023-03-03T21:28:21.049Z,1.65
2023-03-03T21:31:15.935Z,1.60
2023-03-03T21:33:52.715Z,1.65
2023-03-03T21:36:37.122Z,1.64
2023-03-03T21:39:26.383Z,1.59
2023-03-03T21:41:55.505Z,1.60
2023-03-03T21:44:41.443Z,1.64
2023-03-03T21:47:30.921Z,1.65
2023-03-03T21:49:58.506Z,1.63
2023-03-03T21:52:25.822Z,1.67
2023-03-03T21:54:53.405Z,1.59
2023-03-03T21:57:20.747Z,1.64
2023-03-03T21:59:48.397Z,1.67
2023-03-03T22:02:15.838Z,1.73
2023-03-03T22:04:43.563Z,1.67
2023-03-03T22:07:11.612Z,1.67
2023-03-03T22:09:39.240Z,1.58
2023-03-03T22:12:07.855Z,1.66
2023-03-03T22:14:35.598Z,1.53
2023-03-03T22:17:03.476Z,1.60
2023-03-03T22:19:31.442Z,1.64
2023-03-03T22:21:58.706Z,1.63
2023-03-03T22:24:26.354Z,1.64
2023-03-03T22:26:53.650Z,1.70
2023-03-03T22:29:23.126Z,1.65
2023-03-03T22:31:51.341Z,1.59
2023-03-03T22:34:19.161Z,1.63
2023-03-03T22:36:46.435Z,1.69
2023-03-03T22:39:14.002Z,1.51
2023-03-03T22:41:41.301Z,1.55
2023-03-03T22:44:08.980Z,1.50
2023-03-03T22:46:36.409Z,1.67
2023-03-03T22:49:04.096Z,1.51
2023-03-03T22:51:31.467Z,1.46
2023-03-03T22:53:59.111Z,1.49
2023-03-03T22:56:26.368Z,1.48
2023-03-03T22:58:54.067Z,1.40
2023-03-03T23:01:21.452Z,1.55
2023-03-03T23:03:50.383Z,1.48
2023-03-03T23:06:17.770Z,1.53
2023-03-03T23:08:47.215Z,1.41
2023-03-03T23:11:14.518Z,1.48
2023-03-03T23:13:42.180Z,1.65
2023-03-03T23:16:09.486Z,1.67
2023-03-03T23:18:37.188Z,1.69
2023-03-03T23:21:05.258Z,1.69
2023-03-03T23:23:33.066Z,1.78
2023-03-03T23:26:00.909Z,1.75
2023-03-03T23:28:28.561Z,1.77
2023-03-03T23:30:55.866Z,1.63
2023-03-03T23:33:23.436Z,1.59
2023-03-03T23:35:50.757Z,1.68
2023-03-03T23:38:18.339Z,1.66
2023-03-03T23:40:48.724Z,1.66
2023-03-03T23:43:16.379Z,1.57
2023-03-03T23:45:43.839Z,1.64
2023-03-03T23:48:11.817Z,1.59
2023-03-03T23:50:39.366Z,1.68
2023-03-03T23:53:07.999Z,1.58
2023-03-03T23:55:36.368Z,1.55
2023-03-03T23:58:04.817Z,1.62
